Time;durP1;ratioP1;P1;durP2;ratioP2;P2;SDS_P1;SDS_P2;PMS_P1;PMS_P2;Temp;Humidity;BMP_temperature;BMP_pressure;BME280_temperature;BME280_humidity;BME280_pressure;Samples;Min_cycle;Max_cycle;Signal;HPM_P1;HPM_P2
2023/10/29 00:01:06;;;;;;;6.90;3.50;;;10.60;99.90;;;;;;5069757;28;20063;-73
2023/10/29 00:03:33;;;;;;;5.10;3.10;;;10.60;99.90;;;;;;5071750;28;20193;-73
2023/10/29 00:06:00;;;;;;;10.07;3.17;;;10.70;99.90;;;;;;5071896;28;20044;-74
2023/10/29 00:08:27;;;;;;;6.03;2.70;;;10.70;99.90;;;;;;5070372;28;20475;-74
2023/10/29 00:10:54;;;;;;;5.57;3.00;;;10.70;99.90;;;;;;5070848;28;20497;-74
2023/10/29 00:13:25;;;;;;;6.30;3.13;;;10.70;99.90;;;;;;5070493;28;20056;-74
2023/10/29 00:15:51;;;;;;;;;;;10.70;99.90;;;;;;5070370;28;20071;-74
2023/10/29 00:18:18;;;;;;;4.90;2.90;;;10.70;99.90;;;;;;5070544;28;19970;-73
2023/10/29 00:20:45;;;;;;;6.60;3.47;;;10.60;99.90;;;;;;5070287;28;20051;-73
2023/10/29 00:23:13;;;;;;;4.53;3.00;;;10.60;99.90;;;;;;5069997;28;20049;-73
2023/10/29 00:25:40;;;;;;;7.65;3.50;;;10.60;99.90;;;;;;5070576;28;20162;-72
2023/10/29 00:28:07;;;;;;;6.10;3.58;;;10.60;99.90;;;;;;5070709;28;20109;-74
2023/10/29 00:30:36;;;;;;;5.43;3.20;;;10.60;99.90;;;;;;5069743;28;20131;-73
2023/10/29 00:33:02;;;;;;;8.77;4.10;;;10.60;99.90;;;;;;5070636;28;20446;-73
2023/10/29 00:35:29;;;;;;;6.50;3.80;;;10.60;99.90;;;;;;5071861;28;20450;-74
2023/10/29 00:37:56;;;;;;;7.65;3.97;;;10.80;99.90;;;;;;5070141;28;20048;-73
2023/10/29 00:40:23;;;;;;;6.03;3.97;;;10.70;99.90;;;;;;5070136;28;20151;-72
2023/10/29 00:42:50;;;;;;;6.03;4.00;;;10.60;99.90;;;;;;5071105;28;20498;-72
2023/10/29 00:45:17;;;;;;;6.00;3.70;;;10.60;99.90;;;;;;5070521;28;20098;-72
2023/10/29 00:47:45;;;;;;;6.55;4.32;;;10.60;99.90;;;;;;5070456;28;20097;-73
2023/10/29 00:50:13;;;;;;;9.75;4.00;;;10.70;99.90;;;;;;5069896;28;20048;-72
2023/10/29 00:52:40;;;;;;;4.38;3.33;;;10.70;99.90;;;;;;5070245;28;20056;-71
2023/10/29 00:55:08;;;;;;;6.28;3.78;;;10.70;99.90;;;;;;5073437;28;20102;-72
2023/10/29 00:57:35;;;;;;;6.15;3.50;;;10.70;99.90;;;;;;5073389;28;20049;-73
2023/10/29 01:00:02;;;;;;;5.22;3.25;;;10.70;99.90;;;;;;5077101;28;20073;-73
2023/10/29 01:02:31;;;;;;;4.65;3.50;;;10.70;99.90;;;;;;5076917;28;20048;-73
2023/10/29 01:04:59;;;;;;;5.60;3.50;;;10.80;99.90;;;;;;5094866;28;20471;-73
2023/10/29 01:07:26;;;;;;;6.03;3.63;;;10.80;99.90;;;;;;5072715;28;20052;-72
2023/10/29 01:09:53;;;;;;;5.22;3.28;;;10.80;99.90;;;;;;5077256;28;20044;-71
2023/10/29 01:12:21;;;;;;;3.42;2.53;;;10.80;99.90;;;;;;5076627;28;20040;-72
2023/10/29 01:14:47;;;;;;;4.38;3.28;;;10.80;99.90;;;;;;5076798;28;20393;-72
2023/10/29 01:17:14;;;;;;;4.72;2.67;;;10.80;99.90;;;;;;5076964;28;20044;-72
2023/10/29 01:19:41;;;;;;;4.93;2.85;;;10.80;99.90;;;;;;5076268;28;20052;-73
2023/10/29 01:22:10;;;;;;;4.78;2.97;;;10.90;99.90;;;;;;5072473;28;20036;-73
2023/10/29 01:24:38;;;;;;;3.60;2.65;;;10.90;99.90;;;;;;5076987;28;20112;-73
2023/10/29 01:27:05;;;;;;;3.65;2.70;;;10.90;99.90;;;;;;5076290;28;20047;-73
2023/10/29 01:29:32;;;;;;;4.70;2.58;;;10.90;99.90;;;;;;5076592;28;20160;-73
2023/10/29 01:31:58;;;;;;;3.58;2.47;;;11.00;99.90;;;;;;5076854;28;20040;-74
2023/10/29 01:34:25;;;;;;;3.55;2.65;;;11.00;99.90;;;;;;5076318;28;20480;-73
2023/10/29 01:36:52;;;;;;;3.72;2.60;;;11.00;99.90;;;;;;5076786;28;20056;-73
2023/10/29 01:39:20;;;;;;;4.05;2.88;;;11.10;99.90;;;;;;5075826;28;20557;-73
2023/10/29 01:41:47;;;;;;;4.43;2.67;;;11.10;99.90;;;;;;5072567;28;20040;-73
2023/10/29 01:44:14;;;;;;;3.25;2.65;;;11.10;99.90;;;;;;5076404;28;20090;-73
2023/10/29 01:46:41;;;;;;;4.18;3.33;;;11.20;99.90;;;;;;5075718;28;20097;-73
2023/10/29 01:49:09;;;;;;;5.30;3.22;;;11.20;99.90;;;;;;5076383;28;20044;-73
2023/10/29 01:51:36;;;;;;;4.50;3.47;;;11.20;99.90;;;;;;5076024;28;20079;-72
2023/10/29 01:54:04;;;;;;;4.72;3.42;;;11.20;99.90;;;;;;5075824;28;20131;-72
2023/10/29 01:56:32;;;;;;;4.35;3.05;;;11.30;99.90;;;;;;5076239;28;20553;-72
2023/10/29 01:58:59;;;;;;;5.38;3.53;;;11.30;99.90;;;;;;5076365;28;20047;-72
2023/10/29 02:01:26;;;;;;;5.10;3.22;;;11.40;99.90;;;;;;5075136;28;20055;-72
2023/10/29 02:03:53;;;;;;;4.55;3.47;;;11.40;99.90;;;;;;5093932;28;20492;-73
2023/10/29 02:06:20;;;;;;;4.57;3.55;;;11.40;99.90;;;;;;5074972;28;20047;-73
2023/10/29 02:08:47;;;;;;;6.03;3.55;;;11.50;99.90;;;;;;5072808;28;20093;-72
2023/10/29 02:11:14;;;;;;;4.85;3.20;;;11.50;99.90;;;;;;5093842;28;20120;-73
2023/10/29 02:13:42;;;;;;;5.18;3.75;;;11.50;99.90;;;;;;5075770;28;20093;-73
2023/10/29 02:16:09;;;;;;;6.05;3.20;;;11.60;99.90;;;;;;5075218;28;20052;-73
2023/10/29 02:18:37;;;;;;;6.32;3.25;;;11.70;99.90;;;;;;5071485;28;20050;-73
2023/10/29 02:21:04;;;;;;;4.20;3.33;;;11.70;99.90;;;;;;5075758;28;20044;-72
2023/10/29 02:23:34;;;;;;;4.35;2.90;;;11.70;99.90;;;;;;5075104;28;20496;-73
2023/10/29 02:26:01;;;;;;;5.93;3.10;;;11.80;99.90;;;;;;5075736;28;20055;-73
2023/10/29 02:28:27;;;;;;;7.15;3.50;;;11.80;99.90;;;;;;5075042;28;20044;-72
2023/10/29 02:30:54;;;;;;;6.95;2.85;;;11.90;99.90;;;;;;5075506;28;20043;-72
2023/10/29 02:33:21;;;;;;;5.85;2.95;;;11.90;99.90;;;;;;5093287;28;20056;-72
2023/10/29 02:35:49;;;;;;;3.78;2.80;;;11.90;99.90;;;;;;5074939;28;20097;-72
2023/10/29 02:38:16;;;;;;;4.57;2.75;;;11.90;99.90;;;;;;5075316;28;20513;-71
2023/10/29 02:40:45;;;;;;;5.05;2.42;;;12.00;99.90;;;;;;5075279;28;20484;-73
2023/10/29 02:43:13;;;;;;;3.92;2.47;;;12.00;99.90;;;;;;5074512;28;20056;-72
2023/10/29 02:45:40;;;;;;;5.70;2.38;;;12.00;99.90;;;;;;5075243;28;20079;-72
2023/10/29 02:48:07;;;;;;;5.90;2.97;;;12.00;99.90;;;;;;5075280;28;20052;-73
2023/10/29 02:50:36;;;;;;;4.38;2.15;;;11.90;99.90;;;;;;5070128;28;20105;-72
2023/10/29 02:53:03;;;;;;;3.78;2.30;;;11.90;99.90;;;;;;5092833;28;20043;-72
2023/10/29 02:55:30;;;;;;;4.07;2.13;;;12.00;99.90;;;;;;5075129;28;20097;-73
2023/10/29 02:57:58;;;;;;;5.95;2.45;;;11.90;99.90;;;;;;5074465;28;20059;-73
2023/10/29 03:00:25;;;;;;;4.80;2.35;;;11.90;99.90;;;;;;5071395;28;20064;-73
2023/10/29 03:02:52;;;;;;;4.10;2.03;;;11.90;99.90;;;;;;5071191;28;20041;-73
2023/10/29 03:05:19;;;;;;;3.42;2.00;;;11.90;99.90;;;;;;5071084;28;20044;-72
2023/10/29 03:07:46;;;;;;;3.80;1.88;;;11.90;99.90;;;;;;5071309;28;20097;-72
2023/10/29 03:10:12;;;;;;;3.58;2.03;;;11.90;99.90;;;;;;5071372;28;20154;-73
2023/10/29 03:12:39;;;;;;;3.45;1.65;;;11.90;99.90;;;;;;5070696;28;20390;-72
2023/10/29 03:15:08;;;;;;;5.07;2.13;;;11.90;99.90;;;;;;5071418;28;20450;-73
2023/10/29 03:17:35;;;;;;;4.47;2.13;;;11.90;99.90;;;;;;5070299;28;20060;-73
2023/10/29 03:20:02;;;;;;;4.82;2.00;;;11.90;99.90;;;;;;5071266;28;20484;-73
2023/10/29 03:22:29;;;;;;;4.70;1.73;;;11.90;99.90;;;;;;5070810;28;20047;-73
2023/10/29 03:24:56;;;;;;;4.20;1.77;;;11.90;99.90;;;;;;5070755;28;20079;-73
2023/10/29 03:27:23;;;;;;;4.93;1.90;;;11.90;99.90;;;;;;5070849;28;20072;-73
2023/10/29 03:29:50;;;;;;;4.15;2.10;;;11.90;99.90;;;;;;5071250;28;20473;-73
2023/10/29 03:32:18;;;;;;;5.35;2.05;;;11.90;99.90;;;;;;5070576;28;20048;-73
2023/10/29 03:34:45;;;;;;;2.97;1.30;;;11.90;99.90;;;;;;5070660;28;20053;-73
2023/10/29 03:37:12;;;;;;;3.63;1.77;;;11.90;99.90;;;;;;5071195;28;20114;-73
2023/10/29 03:39:38;;;;;;;4.95;1.77;;;11.90;99.90;;;;;;5071340;28;20056;-72
2023/10/29 03:42:06;;;;;;;6.00;1.70;;;11.90;99.90;;;;;;5072028;28;20123;-72
2023/10/29 03:44:32;;;;;;;5.78;1.65;;;11.90;99.90;;;;;;5070890;28;20064;-73
2023/10/29 03:46:59;;;;;;;3.30;1.40;;;11.90;99.90;;;;;;5071653;28;20040;-72
2023/10/29 03:49:27;;;;;;;4.25;1.42;;;11.90;99.90;;;;;;5072122;28;20040;-73
2023/10/29 03:51:54;;;;;;;3.40;1.23;;;11.80;99.90;;;;;;5070959;28;20048;-73
2023/10/29 03:54:21;;;;;;;3.50;1.33;;;11.80;99.90;;;;;;5070216;28;20477;-72
2023/10/29 03:56:48;;;;;;;2.92;1.48;;;11.80;99.90;;;;;;5070920;28;20048;-72
2023/10/29 03:59:15;;;;;;;3.15;1.52;;;11.80;99.90;;;;;;5070746;28;20048;-71
2023/10/29 04:01:41;;;;;;;3.95;1.58;;;11.80;99.90;;;;;;5088900;28;20048;-72
2023/10/29 04:04:09;;;;;;;4.57;1.50;;;11.80;99.90;;;;;;5073629;28;20048;-72
2023/10/29 04:06:37;;;;;;;6.18;1.50;;;11.90;99.90;;;;;;5073975;28;20139;-73
2023/10/29 04:09:04;;;;;;;5.03;1.40;;;11.90;99.90;;;;;;5069426;28;20529;-73
2023/10/29 04:11:32;;;;;;;2.83;1.70;;;12.00;99.90;;;;;;5091813;28;20427;-73
2023/10/29 04:13:59;;;;;;;11.25;1.60;;;12.00;99.90;;;;;;5073300;28;20040;-72
2023/10/29 04:16:26;;;;;;;5.07;1.25;;;12.10;99.90;;;;;;5073857;28;20120;-73
2023/10/29 04:18:53;;;;;;;5.70;1.45;;;12.10;99.90;;;;;;5073544;28;20496;-73
2023/10/29 04:21:20;;;;;;;2.20;1.08;;;12.00;99.90;;;;;;5073357;28;20048;-72
2023/10/29 04:23:49;;;;;;;4.05;1.40;;;12.10;99.90;;;;;;5073473;28;20036;-71
2023/10/29 04:26:16;;;;;;;5.93;1.40;;;12.10;99.90;;;;;;5069869;28;20059;-73
2023/10/29 04:28:43;;;;;;;3.58;1.55;;;12.20;99.90;;;;;;5074146;28;20074;-72
2023/10/29 04:31:10;;;;;;;3.15;1.27;;;12.30;99.90;;;;;;5077896;28;20044;-72
2023/10/29 04:33:37;;;;;;;2.88;1.30;;;12.30;99.90;;;;;;5077506;28;20109;-72
2023/10/29 04:36:05;;;;;;;3.58;1.13;;;12.40;99.90;;;;;;5094665;28;20050;-72
2023/10/29 04:38:35;;;;;;;3.25;1.23;;;12.40;99.90;;;;;;5095497;28;20044;-73
2023/10/29 04:41:03;;;;;;;1.98;0.90;;;12.40;99.90;;;;;;5077979;28;20483;-73
2023/10/29 04:43:30;;;;;;;2.72;1.00;;;12.30;99.90;;;;;;5076773;28;20044;-72
2023/10/29 04:45:57;;;;;;;2.25;0.85;;;12.30;99.90;;;;;;5077322;28;20040;-72
2023/10/29 04:48:24;;;;;;;2.65;0.90;;;12.20;99.90;;;;;;5077409;28;20411;-72
2023/10/29 04:50:51;;;;;;;1.40;0.65;;;12.10;99.90;;;;;;5076950;28;20056;-72
2023/10/29 04:53:18;;;;;;;0.85;0.57;;;12.00;99.90;;;;;;5077489;28;20450;-72
2023/10/29 04:55:45;;;;;;;2.70;0.60;;;11.90;99.90;;;;;;5077264;28;20537;-72
2023/10/29 04:58:13;;;;;;;2.00;0.75;;;11.80;99.90;;;;;;5076940;28;20139;-74
2023/10/29 05:00:40;;;;;;;1.15;0.60;;;11.70;99.90;;;;;;5076928;28;20577;-72
2023/10/29 05:03:07;;;;;;;1.55;0.63;;;11.60;99.90;;;;;;5076412;28;20496;-72
2023/10/29 05:05:34;;;;;;;1.45;0.60;;;11.60;99.90;;;;;;5077146;28;20088;-72
2023/10/29 05:08:01;;;;;;;2.63;0.70;;;11.50;99.90;;;;;;5077320;28;20434;-74
2023/10/29 05:10:29;;;;;;;1.75;0.50;;;11.50;99.90;;;;;;5076512;28;20484;-73
2023/10/29 05:12:56;;;;;;;6.43;1.15;;;11.50;99.90;;;;;;5073088;28;20074;-75
2023/10/29 05:15:24;;;;;;;1.90;0.80;;;11.50;99.90;;;;;;5077113;28;20048;-74
2023/10/29 05:17:51;;;;;;;1.65;0.68;;;11.50;99.90;;;;;;5094510;28;20039;-75
2023/10/29 05:20:18;;;;;;;2.72;0.90;;;11.40;99.90;;;;;;5076887;28;20105;-74
2023/10/29 05:22:45;;;;;;;2.38;1.02;;;11.40;99.90;;;;;;5076654;28;20507;-75
2023/10/29 05:25:12;;;;;;;1.77;0.77;;;11.30;99.90;;;;;;5094156;28;20097;-72
2023/10/29 05:27:39;;;;;;;3.80;0.90;;;11.30;99.90;;;;;;5076753;28;20097;-71
2023/10/29 05:30:07;;;;;;;4.35;0.90;;;11.20;99.90;;;;;;5076637;28;20616;-71
2023/10/29 05:32:35;;;;;;;2.25;0.88;;;11.20;99.90;;;;;;5076267;28;20101;-72
2023/10/29 05:35:03;;;;;;;1.23;0.70;;;11.50;99.90;;;;;;5076674;28;20056;-72
2023/10/29 05:37:29;;;;;;;4.38;1.23;;;11.10;99.90;;;;;;5076313;28;20078;-72
2023/10/29 05:39:56;;;;;;;4.53;1.30;;;11.10;99.90;;;;;;5075848;28;20491;-73
2023/10/29 05:42:24;;;;;;;2.85;0.88;;;11.10;99.90;;;;;;5076384;28;20093;-73
2023/10/29 05:44:51;;;;;;;1.17;0.55;;;11.00;99.90;;;;;;5076175;28;20058;-73
2023/10/29 05:47:18;;;;;;;1.95;0.70;;;11.00;99.90;;;;;;5060703;28;20161;-72
2023/10/29 05:49:47;;;;;;;1.50;0.80;;;11.00;99.90;;;;;;5070682;28;20118;-72
2023/10/29 05:52:13;;;;;;;1.75;0.80;;;11.00;99.90;;;;;;5070005;28;20215;-70
2023/10/29 05:54:40;;;;;;;0.88;0.57;;;10.90;99.90;;;;;;5090156;28;20060;-71
2023/10/29 05:57:07;;;;;;;1.55;0.75;;;11.00;99.90;;;;;;5068223;28;20049;-72
2023/10/29 05:59:34;;;;;;;2.40;0.85;;;11.00;99.90;;;;;;5071438;28;20056;-70
2023/10/29 06:02:01;;;;;;;6.70;1.00;;;11.00;99.90;;;;;;5066012;28;20044;-71
2023/10/29 06:04:28;;;;;;;3.50;0.80;;;11.10;99.90;;;;;;5066406;28;20052;-72
2023/10/29 06:06:56;;;;;;;1.80;0.85;;;11.20;99.90;;;;;;5070285;28;20053;-72
2023/10/29 06:09:23;;;;;;;4.13;0.70;;;11.20;99.90;;;;;;5074247;28;20585;-72
2023/10/29 06:11:52;;;;;;;5.55;1.20;;;11.30;99.90;;;;;;5071517;28;20040;-72
2023/10/29 06:14:19;;;;;;;2.33;1.05;;;11.90;99.90;;;;;;5072255;28;20043;-71
2023/10/29 06:16:47;;;;;;;3.10;0.93;;;11.40;99.90;;;;;;5070467;28;20105;-72
2023/10/29 06:19:14;;;;;;;2.08;0.70;;;11.50;99.90;;;;;;5073337;28;20121;-73
2023/10/29 06:21:41;;;;;;;3.85;1.48;;;11.50;99.90;;;;;;5087538;28;20048;-72
2023/10/29 06:24:09;;;;;;;2.35;0.85;;;11.50;99.90;;;;;;5063551;28;20462;-74
2023/10/29 06:26:36;;;;;;;3.70;0.80;;;11.30;99.90;;;;;;5069228;28;20055;-73
2023/10/29 06:29:04;;;;;;;2.83;0.90;;;11.20;99.90;;;;;;5086874;28;20448;-74
2023/10/29 06:31:33;;;;;;;3.47;0.90;;;11.10;99.90;;;;;;5085150;28;20442;-74
2023/10/29 06:33:59;;;;;;;5.97;1.50;;;11.00;99.90;;;;;;5088241;28;20036;-72
2023/10/29 06:36:26;;;;;;;3.88;1.30;;;11.20;99.90;;;;;;5088612;28;20055;-74
2023/10/29 06:38:53;;;;;;;3.83;1.50;;;11.20;99.90;;;;;;5069026;28;20041;-72
2023/10/29 06:41:21;;;;;;;6.00;1.20;;;11.30;99.90;;;;;;5073126;28;20109;-72
2023/10/29 06:43:48;;;;;;;1.65;0.77;;;11.30;99.90;;;;;;5069691;28;20485;-72
2023/10/29 06:46:16;;;;;;;3.90;0.98;;;11.30;99.90;;;;;;5069734;28;20492;-72
2023/10/29 06:48:43;;;;;;;5.32;1.15;;;11.20;99.90;;;;;;5068729;28;20109;-73
2023/10/29 06:51:10;;;;;;;4.18;1.10;;;11.30;99.90;;;;;;5068873;28;20132;-72
2023/10/29 06:53:37;;;;;;;7.07;1.33;;;11.20;99.90;;;;;;5069395;28;20105;-72
2023/10/29 06:56:05;;;;;;;1.95;0.80;;;11.30;99.90;;;;;;5069211;28;20496;-72
2023/10/29 06:58:33;;;;;;;3.15;1.13;;;11.30;99.90;;;;;;5072755;28;20162;-72
2023/10/29 07:01:04;;;;;;;2.92;1.02;;;11.30;99.90;;;;;;5070198;28;20085;-72
2023/10/29 07:03:32;;;;;;;3.80;2.17;;;11.40;99.90;;;;;;5071912;28;20389;-71
2023/10/29 07:06:05;;;;;;;2.92;0.98;;;11.40;99.90;;;;;;5064850;28;20180;-71
2023/10/29 07:08:32;;;;;;;4.07;1.00;;;11.50;99.90;;;;;;5069943;28;20059;-72
2023/10/29 07:11:00;;;;;;;3.55;0.73;;;11.50;99.90;;;;;;5070247;28;20090;-72
2023/10/29 07:13:26;;;;;;;3.97;1.25;;;11.60;99.90;;;;;;5068528;28;20461;-72
2023/10/29 07:15:55;;;;;;;3.63;0.80;;;11.50;99.90;;;;;;5068965;28;20052;-71
2023/10/29 07:18:23;;;;;;;4.60;1.33;;;12.30;99.90;;;;;;5067671;28;20395;-71
2023/10/29 07:20:52;;;;;;;2.42;1.02;;;11.50;99.90;;;;;;5067495;28;20139;-71
2023/10/29 07:23:19;;;;;;;4.65;1.35;;;11.50;99.90;;;;;;5067176;28;20119;-71
2023/10/29 07:25:47;;;;;;;3.63;1.08;;;11.50;99.90;;;;;;5068938;28;20101;-70
2023/10/29 07:28:14;;;;;;;3.67;1.10;;;11.60;99.90;;;;;;5065535;28;20075;-70
2023/10/29 07:30:41;;;;;;;2.95;0.80;;;11.60;99.90;;;;;;5070578;28;20109;-70
2023/10/29 07:33:10;;;;;;;3.35;1.10;;;11.80;99.90;;;;;;5068297;28;20040;-71
2023/10/29 07:35:37;;;;;;;2.50;0.93;;;11.60;99.90;;;;;;5068650;28;20048;-71
2023/10/29 07:38:04;;;;;;;3.80;1.20;;;11.60;99.90;;;;;;5066122;28;20433;-71
2023/10/29 07:40:31;;;;;;;1.88;0.75;;;11.60;99.90;;;;;;5071667;28;20109;-71
2023/10/29 07:42:58;;;;;;;5.63;1.25;;;11.70;99.90;;;;;;5070005;28;20097;-71
2023/10/29 07:45:25;;;;;;;4.30;1.13;;;11.70;99.90;;;;;;5069870;28;20077;-70
2023/10/29 07:47:52;;;;;;;4.28;1.10;;;11.60;99.90;;;;;;5070106;28;20093;-70
2023/10/29 07:50:21;;;;;;;3.25;0.90;;;11.90;99.90;;;;;;5067916;28;20047;-71
2023/10/29 07:52:48;;;;;;;3.00;1.10;;;12.10;99.90;;;;;;5068246;28;20044;-70
2023/10/29 07:55:14;;;;;;;6.03;1.40;;;12.40;99.90;;;;;;5066092;28;20108;-70
2023/10/29 07:57:42;;;;;;;4.60;0.88;;;12.30;99.90;;;;;;5071610;28;20052;-71
2023/10/29 08:00:10;;;;;;;3.03;1.10;;;12.30;99.90;;;;;;5071588;28;20048;-70
2023/10/29 08:02:38;;;;;;;2.33;0.90;;;12.20;99.90;;;;;;5070979;28;20059;-70
2023/10/29 08:05:05;;;;;;;4.18;1.20;;;12.60;99.90;;;;;;5073760;28;20059;-72
2023/10/29 08:07:34;;;;;;;3.72;1.00;;;12.70;99.90;;;;;;5072749;28;20074;-70
2023/10/29 08:10:01;;;;;;;3.47;1.00;;;12.90;99.90;;;;;;5091832;28;20060;-71
2023/10/29 08:12:29;;;;;;;4.35;0.98;;;13.50;99.90;;;;;;5074362;28;20055;-72
2023/10/29 08:14:56;;;;;;;2.20;0.80;;;13.60;99.90;;;;;;5073413;28;20048;-72
2023/10/29 08:17:23;;;;;;;4.72;0.95;;;13.70;99.90;;;;;;5074760;28;20044;-71
2023/10/29 08:19:50;;;;;;;5.22;1.15;;;14.20;99.90;;;;;;5071492;28;20052;-71
2023/10/29 08:22:17;;;;;;;6.00;1.50;;;14.70;99.90;;;;;;5070923;28;20099;-72
2023/10/29 08:24:45;;;;;;;3.58;1.10;;;15.60;99.90;;;;;;5074110;28;20068;-72
2023/10/29 08:27:12;;;;;;;2.47;1.10;;;16.20;99.90;;;;;;5073635;28;20052;-72
2023/10/29 08:29:40;;;;;;;3.22;0.90;;;16.90;99.90;;;;;;5073678;28;20097;-71
2023/10/29 08:32:07;;;;;;;4.63;1.13;;;17.50;99.90;;;;;;5072399;28;20555;-71
2023/10/29 08:34:34;;;;;;;5.55;0.95;;;17.80;99.90;;;;;;5071092;28;20059;-71
2023/10/29 08:37:01;;;;;;;3.47;1.00;;;17.90;99.90;;;;;;5071649;28;20078;-71
2023/10/29 08:39:29;;;;;;;2.22;1.02;;;18.30;99.90;;;;;;5070498;28;20048;-72
2023/10/29 08:42:00;;;;;;;4.57;1.13;;;18.60;99.90;;;;;;5071092;28;20495;-71
2023/10/29 08:44:27;;;;;;;3.80;0.93;;;18.80;99.90;;;;;;5066588;28;20044;-71
2023/10/29 08:46:54;;;;;;;3.83;1.38;;;18.70;99.90;;;;;;5092643;28;20076;-70
2023/10/29 08:49:21;;;;;;;5.07;1.33;;;18.30;99.90;;;;;;5071338;28;20097;-69
2023/10/29 08:51:48;;;;;;;4.22;1.02;;;17.40;99.90;;;;;;5071610;28;20048;-69
2023/10/29 08:54:15;;;;;;;1.95;0.70;;;17.00;99.90;;;;;;5069585;28;20437;-73
2023/10/29 08:56:42;;;;;;;4.38;1.50;;;16.10;99.90;;;;;;5067889;28;20047;-72
2023/10/29 08:59:10;;;;;;;2.95;1.00;;;15.60;99.90;;;;;;5069861;28;20097;-74
2023/10/29 09:01:37;;;;;;;5.35;1.17;;;16.00;99.90;;;;;;5072663;28;20090;-74
2023/10/29 09:04:05;;;;;;;6.03;1.23;;;16.60;99.90;;;;;;5075872;28;20044;-72
2023/10/29 09:06:32;;;;;;;4.45;0.88;;;17.00;99.90;;;;;;5073353;28;20113;-72
2023/10/29 09:08:59;;;;;;;2.92;0.85;;;16.50;99.90;;;;;;5074100;28;20071;-73
2023/10/29 09:11:26;;;;;;;3.50;0.90;;;16.00;99.90;;;;;;5072780;28;20488;-72
2023/10/29 09:13:53;;;;;;;4.93;1.05;;;15.30;99.90;;;;;;5073230;28;20036;-73
2023/10/29 09:16:21;;;;;;;3.03;0.85;;;14.90;99.90;;;;;;5066044;28;20036;-72
2023/10/29 09:18:48;;;;;;;4.13;1.27;;;14.50;99.90;;;;;;5067396;28;20095;-71
2023/10/29 09:21:15;;;;;;;6.15;1.23;;;14.20;99.90;;;;;;5072680;28;20060;-73
2023/10/29 09:23:43;;;;;;;2.28;1.00;;;14.00;99.90;;;;;;5068736;28;20052;-72
2023/10/29 09:26:10;;;;;;;3.67;1.10;;;14.00;99.90;;;;;;5072652;28;20059;-73
2023/10/29 09:28:37;;;;;;;4.43;1.38;;;14.40;99.90;;;;;;5070150;28;20047;-71
2023/10/29 09:31:04;;;;;;;2.97;0.93;;;14.90;99.90;;;;;;5071464;28;20411;-72
2023/10/29 09:33:32;;;;;;;6.80;1.10;;;15.70;99.90;;;;;;5070936;28;20064;-72
2023/10/29 09:36:00;;;;;;;5.22;0.95;;;16.40;99.90;;;;;;5073120;28;20051;-72
2023/10/29 09:38:27;;;;;;;7.90;2.53;;;16.40;99.90;;;;;;5070940;28;20044;-71
2023/10/29 09:40:53;;;;;;;5.15;1.20;;;16.80;99.90;;;;;;5067284;28;20052;-73
2023/10/29 09:43:21;;;;;;;5.97;1.33;;;17.30;99.90;;;;;;5061457;28;20060;-72
2023/10/29 09:45:49;;;;;;;3.20;1.20;;;17.00;99.90;;;;;;5090179;28;20105;-72
2023/10/29 09:48:16;;;;;;;3.80;1.00;;;16.90;99.90;;;;;;5069833;28;20047;-71
2023/10/29 09:50:45;;;;;;;6.63;1.25;;;17.60;99.90;;;;;;5074080;28;20123;-71
2023/10/29 09:53:12;;;;;;;4.05;1.10;;;17.80;99.90;;;;;;5067409;28;20406;-71
2023/10/29 09:55:40;;;;;;;4.18;1.52;;;18.10;99.90;;;;;;5072227;28;20062;-71
2023/10/29 09:58:07;;;;;;;3.72;1.15;;;18.70;99.90;;;;;;5072658;28;20415;-71
2023/10/29 10:00:36;;;;;;;4.88;1.15;;;18.70;99.90;;;;;;5061431;28;20107;-71
2023/10/29 10:03:03;;;;;;;4.75;1.40;;;18.20;99.90;;;;;;5089024;28;20043;-71
2023/10/29 10:05:30;;;;;;;3.38;1.00;;;18.20;99.90;;;;;;5067882;28;20044;-72
2023/10/29 10:07:59;;;;;;;3.22;1.20;;;19.20;99.90;;;;;;5066339;28;20045;-72
2023/10/29 10:10:38;;;;;;;5.47;1.40;;;19.50;99.90;;;;;;5072771;28;20448;-71
2023/10/29 10:13:06;;;;;;;5.32;1.15;;;19.30;99.90;;;;;;5087274;28;20044;-71
2023/10/29 10:15:33;;;;;;;4.57;1.15;;;18.90;99.90;;;;;;5071313;28;20093;-71
2023/10/29 10:18:01;;;;;;;3.97;0.77;;;18.70;99.90;;;;;;5068736;28;20047;-71
2023/10/29 10:20:30;;;;;;;3.60;0.93;;;19.00;99.90;;;;;;5068669;28;20040;-71
2023/10/29 10:22:59;;;;;;;4.78;0.88;;;18.60;99.90;;;;;;5067638;28;20101;-72
2023/10/29 10:25:27;;;;;;;3.65;1.30;;;18.20;99.90;;;;;;5068829;28;20044;-71
2023/10/29 10:27:55;;;;;;;7.53;1.83;;;18.10;99.90;;;;;;5069355;28;20048;-73
2023/10/29 10:30:27;;;;;;;3.88;1.13;;;18.30;99.90;;;;;;5071264;28;20952;-72
2023/10/29 10:32:55;;;;;;;5.03;1.25;;;18.30;99.90;;;;;;5066822;28;20102;-72
2023/10/29 10:35:22;;;;;;;4.93;1.65;;;18.50;99.90;;;;;;5063869;28;20106;-72
2023/10/29 10:37:55;;;;;;;4.03;1.00;;;17.90;99.90;;;;;;5069891;28;20059;-72
2023/10/29 10:40:26;;;;;;;4.28;0.93;;;17.70;99.90;;;;;;5067493;28;20060;-72
2023/10/29 10:42:56;;;;;;;;;;;17.40;99.90;;;;;;5070847;28;20048;-72
2023/10/29 10:45:26;;;;;;;;;;;17.80;99.90;;;;;;5068549;28;19931;-72
2023/10/29 10:47:56;;;;;;;3.78;1.10;;;18.10;99.90;;;;;;5069339;28;19920;-73
2023/10/29 10:50:24;;;;;;;5.05;1.08;;;18.00;99.90;;;;;;5065306;28;20134;-73
2023/10/29 10:52:52;;;;;;;2.63;1.10;;;17.70;99.90;;;;;;5068818;28;20048;-72
2023/10/29 10:55:19;;;;;;;3.08;1.25;;;18.20;99.90;;;;;;5068615;28;20044;-72
2023/10/29 10:57:49;;;;;;;5.63;1.35;;;17.80;99.90;;;;;;5067133;28;20109;-71
2023/10/29 11:00:17;;;;;;;4.28;1.35;;;17.80;99.90;;;;;;5066180;28;20514;-72
2023/10/29 11:02:45;;;;;;;5.10;1.13;;;18.00;99.90;;;;;;5067594;28;20114;-71
2023/10/29 11:05:12;;;;;;;6.03;1.23;;;18.00;99.90;;;;;;5071475;28;20545;-72
2023/10/29 11:07:41;;;;;;;4.60;1.30;;;18.70;99.90;;;;;;5067872;28;20101;-71
2023/10/29 11:10:09;;;;;;;5.47;1.42;;;18.60;99.90;;;;;;5070228;28;20044;-73
2023/10/29 11:12:36;;;;;;;5.65;1.10;;;18.50;99.90;;;;;;5069418;28;20058;-72
2023/10/29 11:15:16;;;;;;;3.30;1.27;;;17.90;99.90;;;;;;5070582;28;20464;-72
2023/10/29 11:17:56;;;;;;;4.63;1.65;;;17.30;99.90;;;;;;5069338;28;20047;-71
2023/10/29 11:20:49;;;;;;;;;;;16.90;99.90;;;;;;5069990;28;20460;-72
2023/10/29 11:23:17;;;;;;;3.70;1.20;;;16.50;99.90;;;;;;5052648;28;19920;-73
2023/10/29 11:25:44;;;;;;;2.97;1.65;;;17.10;99.90;;;;;;5067988;28;20091;-73
2023/10/29 11:28:41;;;;;;;5.45;1.30;;;17.50;99.90;;;;;;5069816;28;20043;-73
2023/10/29 11:31:17;;;;;;;4.32;1.33;;;17.60;99.90;;;;;;5064938;28;20469;-73
2023/10/29 11:33:45;;;;;;;8.57;2.75;;;17.80;99.90;;;;;;5067869;28;20045;-72
2023/10/29 11:36:32;;;;;;;4.82;1.45;;;18.00;99.90;;;;;;5072079;28;20044;-73
2023/10/29 11:39:31;;;;;;;4.47;1.55;;;17.90;99.90;;;;;;5061314;28;20443;-72
2023/10/29 11:41:59;;;;;;;11.88;1.65;;;17.70;99.90;;;;;;5069125;28;20052;-77
2023/10/29 11:44:28;;;;;;;5.20;1.30;;;17.60;99.90;;;;;;5069137;28;20044;-74
2023/10/29 11:47:06;;;;;;;5.78;1.98;;;17.40;99.90;;;;;;5068419;28;20127;-75
2023/10/29 11:50:07;;;;;;;4.82;1.35;;;17.40;99.90;;;;;;5089901;28;20036;-74
2023/10/29 11:52:43;;;;;;;;;;;17.00;99.90;;;;;;5086440;28;20464;-73
2023/10/29 11:55:14;;;;;;;6.47;1.45;;;16.50;99.90;;;;;;5073487;28;20372;-73
2023/10/29 11:57:47;;;;;;;5.15;1.48;;;16.10;99.90;;;;;;5073820;28;20051;-73
2023/10/29 12:00:15;;;;;;;4.85;1.30;;;15.80;99.90;;;;;;5072709;28;20052;-73
2023/10/29 12:02:46;;;;;;;5.50;1.70;;;15.60;99.90;;;;;;5073969;28;20393;-72
2023/10/29 12:05:14;;;;;;;6.50;1.80;;;15.50;99.90;;;;;;5073676;28;20040;-74
2023/10/29 12:07:40;;;;;;;6.38;1.55;;;15.40;99.90;;;;;;5072652;28;20080;-73
2023/10/29 12:10:08;;;;;;;6.38;1.73;;;15.40;99.90;;;;;;5072352;28;20048;-74
2023/10/29 12:12:39;;;;;;;6.07;1.73;;;15.40;99.90;;;;;;5072169;28;20561;-72
2023/10/29 12:15:07;;;;;;;6.95;2.03;;;15.40;99.90;;;;;;5060657;28;20063;-73
2023/10/29 12:17:34;;;;;;;8.07;2.55;;;15.30;99.90;;;;;;5052454;28;20133;-73
2023/10/29 12:20:03;;;;;;;8.32;2.10;;;15.30;99.90;;;;;;5070630;28;20235;-73
2023/10/29 12:22:32;;;;;;;7.47;1.83;;;15.10;99.90;;;;;;5063551;28;20059;-72
2023/10/29 12:25:00;;;;;;;10.38;2.13;;;15.00;99.90;;;;;;5068649;28;20101;-73
2023/10/29 12:27:27;;;;;;;6.35;1.70;;;15.00;99.90;;;;;;5071471;28;20492;-73
2023/10/29 12:29:54;;;;;;;6.07;1.55;;;15.00;99.90;;;;;;5067694;28;20051;-74
2023/10/29 12:32:23;;;;;;;6.70;1.67;;;15.00;99.90;;;;;;5069379;28;20073;-73
2023/10/29 12:34:50;;;;;;;5.82;1.63;;;15.00;99.90;;;;;;5071164;28;20056;-73
2023/10/29 12:37:23;;;;;;;8.48;2.53;;;15.00;99.90;;;;;;5064775;28;20446;-73
2023/10/29 12:39:53;;;;;;;4.85;1.55;;;14.90;99.90;;;;;;5059681;28;20056;-73
2023/10/29 12:42:21;;;;;;;8.40;1.75;;;14.90;99.90;;;;;;5071672;28;20515;-73
2023/10/29 12:44:57;;;;;;;6.50;1.73;;;14.90;99.90;;;;;;5067001;28;20069;-75
2023/10/29 12:47:24;;;;;;;5.78;1.80;;;14.80;99.90;;;;;;5072169;28;20043;-73
2023/10/29 12:50:02;;;;;;;6.47;2.10;;;14.90;99.90;;;;;;5069406;28;20044;-73
2023/10/29 12:52:30;;;;;;;6.38;1.75;;;14.80;99.90;;;;;;5070864;28;20105;-73